sensor_id;sensor_type;location;lat;lon;timestamp;P1;durP1;ratioP1;P2;durP2;ratioP2
16115;SDS011;8162;47.104;15.432;2022-12-29T00:01:55;8.93;;;5.90;;
16115;SDS011;8162;47.104;15.432;2022-12-29T00:04:21;11.33;;;6.90;;
16115;SDS011;8162;47.104;15.432;2022-12-29T00:06:47;8.30;;;5.67;;
16115;SDS011;8162;47.104;15.432;2022-12-29T00:09:13;9.07;;;5.80;;
16115;SDS011;8162;47.104;15.432;2022-12-29T00:11:40;9.43;;;6.20;;
16115;SDS011;8162;47.104;15.432;2022-12-29T00:14:08;9.10;;;5.77;;
16115;SDS011;8162;47.104;15.432;2022-12-29T00:16:53;10.60;;;7.13;;
16115;SDS011;8162;47.104;15.432;2022-12-29T00:19:19;10.03;;;6.03;;
16115;SDS011;8162;47.104;15.432;2022-12-29T00:22:03;8.20;;;5.83;;
16115;SDS011;8162;47.104;15.432;2022-12-29T00:24:48;8.83;;;5.93;;
16115;SDS011;8162;47.104;15.432;2022-12-29T00:27:20;7.87;;;5.40;;
16115;SDS011;8162;47.104;15.432;2022-12-29T00:30:08;9.77;;;5.77;;
16115;SDS011;8162;47.104;15.432;2022-12-29T00:32:54;8.53;;;5.20;;
16115;SDS011;8162;47.104;15.432;2022-12-29T00:35:43;8.07;;;5.70;;
16115;SDS011;8162;47.104;15.432;2022-12-29T00:38:20;11.00;;;6.53;;
16115;SDS011;8162;47.104;15.432;2022-12-29T00:41:05;9.23;;;5.83;;
16115;SDS011;8162;47.104;15.432;2022-12-29T00:43:49;8.07;;;5.47;;
16115;SDS011;8162;47.104;15.432;2022-12-29T00:46:33;10.47;;;6.57;;
16115;SDS011;8162;47.104;15.432;2022-12-29T00:49:00;7.83;;;5.43;;
16115;SDS011;8162;47.104;15.432;2022-12-29T00:51:45;8.60;;;5.77;;
16115;SDS011;8162;47.104;15.432;2022-12-29T00:54:11;8.30;;;5.80;;
16115;SDS011;8162;47.104;15.432;2022-12-29T00:56:37;10.87;;;6.60;;
16115;SDS011;8162;47.104;15.432;2022-12-29T00:59:03;6.80;;;4.60;;
16115;SDS011;8162;47.104;15.432;2022-12-29T01:01:30;9.37;;;5.43;;
16115;SDS011;8162;47.104;15.432;2022-12-29T01:03:56;9.93;;;5.73;;
16115;SDS011;8162;47.104;15.432;2022-12-29T01:06:22;7.67;;;5.60;;
16115;SDS011;8162;47.104;15.432;2022-12-29T01:08:48;9.37;;;5.97;;
16115;SDS011;8162;47.104;15.432;2022-12-29T01:11:33;11.27;;;6.60;;
16115;SDS011;8162;47.104;15.432;2022-12-29T01:13:59;9.23;;;6.30;;
16115;SDS011;8162;47.104;15.432;2022-12-29T01:16:25;9.43;;;6.17;;
16115;SDS011;8162;47.104;15.432;2022-12-29T01:18:50;8.87;;;6.27;;
16115;SDS011;8162;47.104;15.432;2022-12-29T01:21:16;7.53;;;5.13;;
16115;SDS011;8162;47.104;15.432;2022-12-29T01:23:41;9.20;;;5.57;;
16115;SDS011;8162;47.104;15.432;2022-12-29T01:26:08;9.93;;;5.83;;
16115;SDS011;8162;47.104;15.432;2022-12-29T01:28:37;8.90;;;5.47;;
16115;SDS011;8162;47.104;15.432;2022-12-29T01:31:07;8.80;;;5.83;;
16115;SDS011;8162;47.104;15.432;2022-12-29T01:33:33;8.33;;;5.30;;
16115;SDS011;8162;47.104;15.432;2022-12-29T01:36:00;10.57;;;6.77;;
16115;SDS011;8162;47.104;15.432;2022-12-29T01:38:26;11.67;;;5.83;;
16115;SDS011;8162;47.104;15.432;2022-12-29T01:40:51;7.93;;;5.90;;
16115;SDS011;8162;47.104;15.432;2022-12-29T01:43:17;8.40;;;5.27;;
16115;SDS011;8162;47.104;15.432;2022-12-29T01:45:50;8.93;;;5.77;;
16115;SDS011;8162;47.104;15.432;2022-12-29T01:48:18;9.20;;;5.80;;
16115;SDS011;8162;47.104;15.432;2022-12-29T01:50:46;8.07;;;6.07;;
16115;SDS011;8162;47.104;15.432;2022-12-29T01:53:21;7.43;;;5.63;;
16115;SDS011;8162;47.104;15.432;2022-12-29T01:55:59;7.93;;;4.90;;
16115;SDS011;8162;47.104;15.432;2022-12-29T01:58:30;8.10;;;5.97;;
16115;SDS011;8162;47.104;15.432;2022-12-29T02:01:02;7.13;;;5.43;;
16115;SDS011;8162;47.104;15.432;2022-12-29T02:03:29;9.10;;;5.50;;
16115;SDS011;8162;47.104;15.432;2022-12-29T02:05:58;7.93;;;6.33;;
16115;SDS011;8162;47.104;15.432;2022-12-29T02:08:31;9.03;;;5.67;;
16115;SDS011;8162;47.104;15.432;2022-12-29T02:10:56;10.63;;;5.80;;
16115;SDS011;8162;47.104;15.432;2022-12-29T02:13:24;9.53;;;5.70;;
16115;SDS011;8162;47.104;15.432;2022-12-29T02:18:28;8.20;;;5.40;;
16115;SDS011;8162;47.104;15.432;2022-12-29T02:27:00;8.27;;;4.90;;
16115;SDS011;8162;47.104;15.432;2022-12-29T02:35:29;7.00;;;4.93;;
16115;SDS011;8162;47.104;15.432;2022-12-29T02:43:25;11.33;;;5.63;;
16115;SDS011;8162;47.104;15.432;2022-12-29T02:46:08;8.33;;;5.27;;
16115;SDS011;8162;47.104;15.432;2022-12-29T02:48:43;7.20;;;5.77;;
16115;SDS011;8162;47.104;15.432;2022-12-29T02:51:15;10.23;;;5.73;;
16115;SDS011;8162;47.104;15.432;2022-12-29T02:53:55;7.53;;;5.77;;
16115;SDS011;8162;47.104;15.432;2022-12-29T02:56:41;8.03;;;5.10;;
16115;SDS011;8162;47.104;15.432;2022-12-29T02:59:06;9.30;;;5.47;;
16115;SDS011;8162;47.104;15.432;2022-12-29T03:10:12;7.57;;;5.50;;
16115;SDS011;8162;47.104;15.432;2022-12-29T03:13:08;5.87;;;4.80;;
16115;SDS011;8162;47.104;15.432;2022-12-29T03:15:55;13.03;;;5.27;;
16115;SDS011;8162;47.104;15.432;2022-12-29T03:21:39;9.60;;;5.13;;
16115;SDS011;8162;47.104;15.432;2022-12-29T03:24:46;8.53;;;5.00;;
16115;SDS011;8162;47.104;15.432;2022-12-29T03:27:16;7.10;;;5.23;;
16115;SDS011;8162;47.104;15.432;2022-12-29T03:29:52;6.37;;;5.20;;
16115;SDS011;8162;47.104;15.432;2022-12-29T03:32:22;6.57;;;4.70;;
16115;SDS011;8162;47.104;15.432;2022-12-29T03:34:56;5.50;;;4.17;;
16115;SDS011;8162;47.104;15.432;2022-12-29T03:37:29;8.43;;;5.40;;
16115;SDS011;8162;47.104;15.432;2022-12-29T03:40:00;6.60;;;5.03;;
16115;SDS011;8162;47.104;15.432;2022-12-29T03:42:27;8.63;;;5.60;;
16115;SDS011;8162;47.104;15.432;2022-12-29T03:44:57;9.83;;;5.00;;
16115;SDS011;8162;47.104;15.432;2022-12-29T03:47:23;8.00;;;4.20;;
16115;SDS011;8162;47.104;15.432;2022-12-29T03:49:50;6.80;;;5.03;;
16115;SDS011;8162;47.104;15.432;2022-12-29T03:52:16;7.10;;;4.70;;
16115;SDS011;8162;47.104;15.432;2022-12-29T03:54:42;5.93;;;4.70;;
16115;SDS011;8162;47.104;15.432;2022-12-29T03:57:08;7.33;;;4.43;;
16115;SDS011;8162;47.104;15.432;2022-12-29T03:59:35;8.17;;;4.63;;
16115;SDS011;8162;47.104;15.432;2022-12-29T04:02:00;6.93;;;4.47;;
16115;SDS011;8162;47.104;15.432;2022-12-29T04:04:26;7.27;;;4.60;;
16115;SDS011;8162;47.104;15.432;2022-12-29T04:06:52;7.63;;;4.90;;
16115;SDS011;8162;47.104;15.432;2022-12-29T04:09:17;8.13;;;4.57;;
16115;SDS011;8162;47.104;15.432;2022-12-29T04:11:43;6.97;;;4.67;;
16115;SDS011;8162;47.104;15.432;2022-12-29T04:14:09;6.00;;;4.87;;
16115;SDS011;8162;47.104;15.432;2022-12-29T04:16:34;8.13;;;4.73;;
16115;SDS011;8162;47.104;15.432;2022-12-29T04:19:04;8.27;;;5.27;;
16115;SDS011;8162;47.104;15.432;2022-12-29T04:21:31;8.03;;;4.13;;
16115;SDS011;8162;47.104;15.432;2022-12-29T04:23:56;6.60;;;5.17;;
16115;SDS011;8162;47.104;15.432;2022-12-29T04:26:22;6.87;;;4.40;;
16115;SDS011;8162;47.104;15.432;2022-12-29T04:28:48;6.47;;;4.33;;
16115;SDS011;8162;47.104;15.432;2022-12-29T04:31:14;8.97;;;4.83;;
16115;SDS011;8162;47.104;15.432;2022-12-29T04:33:39;6.53;;;4.30;;
16115;SDS011;8162;47.104;15.432;2022-12-29T04:36:05;6.30;;;5.60;;
16115;SDS011;8162;47.104;15.432;2022-12-29T04:38:31;10.07;;;6.30;;
16115;SDS011;8162;47.104;15.432;2022-12-29T04:40:58;9.10;;;6.20;;
16115;SDS011;8162;47.104;15.432;2022-12-29T04:43:25;9.67;;;6.20;;
16115;SDS011;8162;47.104;15.432;2022-12-29T04:45:50;10.40;;;6.17;;
16115;SDS011;8162;47.104;15.432;2022-12-29T04:48:16;8.73;;;5.47;;
16115;SDS011;8162;47.104;15.432;2022-12-29T04:50:42;8.50;;;5.73;;
16115;SDS011;8162;47.104;15.432;2022-12-29T04:53:08;10.37;;;6.83;;
16115;SDS011;8162;47.104;15.432;2022-12-29T04:55:34;6.67;;;5.27;;
16115;SDS011;8162;47.104;15.432;2022-12-29T04:58:00;8.57;;;5.57;;
16115;SDS011;8162;47.104;15.432;2022-12-29T05:00:25;10.83;;;6.27;;
16115;SDS011;8162;47.104;15.432;2022-12-29T05:02:51;7.57;;;5.43;;
16115;SDS011;8162;47.104;15.432;2022-12-29T05:05:17;10.20;;;5.77;;
16115;SDS011;8162;47.104;15.432;2022-12-29T05:07:43;7.57;;;5.77;;
16115;SDS011;8162;47.104;15.432;2022-12-29T05:10:09;9.10;;;5.87;;
16115;SDS011;8162;47.104;15.432;2022-12-29T05:12:36;10.10;;;6.03;;
16115;SDS011;8162;47.104;15.432;2022-12-29T05:15:03;9.30;;;6.00;;
16115;SDS011;8162;47.104;15.432;2022-12-29T05:17:29;9.00;;;6.20;;
16115;SDS011;8162;47.104;15.432;2022-12-29T05:19:55;10.10;;;5.60;;
16115;SDS011;8162;47.104;15.432;2022-12-29T05:22:21;7.97;;;4.93;;
16115;SDS011;8162;47.104;15.432;2022-12-29T05:24:47;6.87;;;5.17;;
16115;SDS011;8162;47.104;15.432;2022-12-29T05:27:12;10.33;;;6.00;;
16115;SDS011;8162;47.104;15.432;2022-12-29T05:29:38;9.63;;;5.50;;
16115;SDS011;8162;47.104;15.432;2022-12-29T05:32:04;8.13;;;5.30;;
16115;SDS011;8162;47.104;15.432;2022-12-29T05:34:30;7.70;;;4.70;;
16115;SDS011;8162;47.104;15.432;2022-12-29T05:36:55;7.03;;;4.97;;
16115;SDS011;8162;47.104;15.432;2022-12-29T05:39:21;6.57;;;4.93;;
16115;SDS011;8162;47.104;15.432;2022-12-29T05:41:47;7.07;;;4.43;;
16115;SDS011;8162;47.104;15.432;2022-12-29T05:44:12;6.27;;;4.30;;
16115;SDS011;8162;47.104;15.432;2022-12-29T05:46:38;7.77;;;5.03;;
16115;SDS011;8162;47.104;15.432;2022-12-29T05:49:04;7.00;;;4.73;;
16115;SDS011;8162;47.104;15.432;2022-12-29T05:51:30;8.40;;;4.23;;
16115;SDS011;8162;47.104;15.432;2022-12-29T05:53:56;6.50;;;4.70;;
16115;SDS011;8162;47.104;15.432;2022-12-29T05:56:22;9.07;;;4.87;;
16115;SDS011;8162;47.104;15.432;2022-12-29T05:58:48;8.80;;;5.23;;
16115;SDS011;8162;47.104;15.432;2022-12-29T06:01:14;6.93;;;4.63;;
16115;SDS011;8162;47.104;15.432;2022-12-29T06:03:40;7.70;;;5.87;;
16115;SDS011;8162;47.104;15.432;2022-12-29T06:06:05;7.33;;;4.97;;
16115;SDS011;8162;47.104;15.432;2022-12-29T06:08:31;7.30;;;4.83;;
16115;SDS011;8162;47.104;15.432;2022-12-29T06:10:57;7.67;;;4.20;;
16115;SDS011;8162;47.104;15.432;2022-12-29T06:13:23;8.47;;;4.67;;
16115;SDS011;8162;47.104;15.432;2022-12-29T06:15:49;7.73;;;4.83;;
16115;SDS011;8162;47.104;15.432;2022-12-29T06:18:15;6.93;;;4.80;;
16115;SDS011;8162;47.104;15.432;2022-12-29T06:20:41;6.03;;;4.40;;
16115;SDS011;8162;47.104;15.432;2022-12-29T06:23:06;8.60;;;4.50;;
16115;SDS011;8162;47.104;15.432;2022-12-29T06:25:32;6.57;;;4.87;;
16115;SDS011;8162;47.104;15.432;2022-12-29T06:27:59;6.83;;;4.30;;
16115;SDS011;8162;47.104;15.432;2022-12-29T06:30:25;8.30;;;5.10;;
16115;SDS011;8162;47.104;15.432;2022-12-29T06:32:50;7.10;;;4.60;;
16115;SDS011;8162;47.104;15.432;2022-12-29T06:35:16;7.27;;;5.17;;
16115;SDS011;8162;47.104;15.432;2022-12-29T06:37:42;6.53;;;3.90;;
16115;SDS011;8162;47.104;15.432;2022-12-29T06:40:08;7.33;;;4.23;;
16115;SDS011;8162;47.104;15.432;2022-12-29T06:42:34;7.20;;;4.70;;
16115;SDS011;8162;47.104;15.432;2022-12-29T06:45:00;5.97;;;4.57;;
16115;SDS011;8162;47.104;15.432;2022-12-29T06:47:26;9.40;;;4.87;;
16115;SDS011;8162;47.104;15.432;2022-12-29T06:49:52;6.10;;;4.97;;
16115;SDS011;8162;47.104;15.432;2022-12-29T06:52:18;7.43;;;5.07;;
16115;SDS011;8162;47.104;15.432;2022-12-29T06:54:43;6.50;;;4.43;;
16115;SDS011;8162;47.104;15.432;2022-12-29T06:57:09;7.83;;;4.47;;
16115;SDS011;8162;47.104;15.432;2022-12-29T06:59:35;5.90;;;4.37;;
16115;SDS011;8162;47.104;15.432;2022-12-29T07:02:01;6.03;;;4.90;;
16115;SDS011;8162;47.104;15.432;2022-12-29T07:04:30;6.80;;;4.47;;
16115;SDS011;8162;47.104;15.432;2022-12-29T07:06:56;7.73;;;4.40;;
16115;SDS011;8162;47.104;15.432;2022-12-29T07:09:21;7.37;;;5.00;;
16115;SDS011;8162;47.104;15.432;2022-12-29T07:11:47;8.90;;;4.70;;
16115;SDS011;8162;47.104;15.432;2022-12-29T07:14:13;5.57;;;4.07;;
16115;SDS011;8162;47.104;15.432;2022-12-29T07:16:38;6.50;;;3.80;;
16115;SDS011;8162;47.104;15.432;2022-12-29T07:19:04;7.33;;;4.77;;
16115;SDS011;8162;47.104;15.432;2022-12-29T07:21:30;5.23;;;4.40;;
16115;SDS011;8162;47.104;15.432;2022-12-29T07:23:55;5.83;;;4.80;;
16115;SDS011;8162;47.104;15.432;2022-12-29T07:26:21;6.60;;;4.73;;
16115;SDS011;8162;47.104;15.432;2022-12-29T07:28:47;6.87;;;4.20;;
16115;SDS011;8162;47.104;15.432;2022-12-29T07:31:17;7.27;;;4.83;;
16115;SDS011;8162;47.104;15.432;2022-12-29T07:33:45;8.00;;;4.60;;
16115;SDS011;8162;47.104;15.432;2022-12-29T07:36:12;6.70;;;4.67;;
16115;SDS011;8162;47.104;15.432;2022-12-29T07:38:39;8.50;;;5.07;;
16115;SDS011;8162;47.104;15.432;2022-12-29T07:41:05;6.00;;;4.23;;
16115;SDS011;8162;47.104;15.432;2022-12-29T07:43:31;9.40;;;4.43;;
16115;SDS011;8162;47.104;15.432;2022-12-29T07:45:57;7.90;;;4.77;;
16115;SDS011;8162;47.104;15.432;2022-12-29T07:48:23;6.40;;;4.73;;
16115;SDS011;8162;47.104;15.432;2022-12-29T07:50:48;7.07;;;4.13;;
16115;SDS011;8162;47.104;15.432;2022-12-29T07:53:14;6.97;;;4.43;;
16115;SDS011;8162;47.104;15.432;2022-12-29T07:55:40;6.37;;;4.33;;
16115;SDS011;8162;47.104;15.432;2022-12-29T07:58:06;7.90;;;4.77;;
16115;SDS011;8162;47.104;15.432;2022-12-29T08:00:32;7.43;;;4.47;;
16115;SDS011;8162;47.104;15.432;2022-12-29T08:02:58;5.60;;;4.47;;
16115;SDS011;8162;47.104;15.432;2022-12-29T08:05:24;7.13;;;4.80;;
16115;SDS011;8162;47.104;15.432;2022-12-29T08:07:50;5.40;;;4.27;;
16115;SDS011;8162;47.104;15.432;2022-12-29T08:10:15;7.47;;;4.87;;
16115;SDS011;8162;47.104;15.432;2022-12-29T08:12:41;8.17;;;4.80;;
16115;SDS011;8162;47.104;15.432;2022-12-29T08:15:08;7.53;;;5.40;;
16115;SDS011;8162;47.104;15.432;2022-12-29T08:17:35;7.23;;;4.43;;
16115;SDS011;8162;47.104;15.432;2022-12-29T08:20:01;8.50;;;4.37;;
16115;SDS011;8162;47.104;15.432;2022-12-29T08:22:27;7.40;;;4.73;;
16115;SDS011;8162;47.104;15.432;2022-12-29T08:24:53;10.33;;;4.83;;
16115;SDS011;8162;47.104;15.432;2022-12-29T08:27:19;7.10;;;4.13;;
16115;SDS011;8162;47.104;15.432;2022-12-29T08:29:44;5.97;;;4.57;;
16115;SDS011;8162;47.104;15.432;2022-12-29T08:32:10;7.97;;;4.70;;
16115;SDS011;8162;47.104;15.432;2022-12-29T08:34:36;6.30;;;4.40;;
16115;SDS011;8162;47.104;15.432;2022-12-29T08:37:02;7.23;;;4.80;;
16115;SDS011;8162;47.104;15.432;2022-12-29T08:39:28;5.87;;;4.40;;
16115;SDS011;8162;47.104;15.432;2022-12-29T08:41:54;7.37;;;5.30;;
16115;SDS011;8162;47.104;15.432;2022-12-29T08:44:20;6.50;;;4.67;;
16115;SDS011;8162;47.104;15.432;2022-12-29T08:46:46;6.00;;;4.30;;
16115;SDS011;8162;47.104;15.432;2022-12-29T08:49:12;4.60;;;4.13;;
16115;SDS011;8162;47.104;15.432;2022-12-29T08:51:37;6.03;;;4.43;;
16115;SDS011;8162;47.104;15.432;2022-12-29T08:54:03;7.30;;;4.83;;
16115;SDS011;8162;47.104;15.432;2022-12-29T08:56:29;8.10;;;4.80;;
16115;SDS011;8162;47.104;15.432;2022-12-29T08:58:55;5.93;;;4.53;;
16115;SDS011;8162;47.104;15.432;2022-12-29T09:01:21;6.47;;;4.17;;
16115;SDS011;8162;47.104;15.432;2022-12-29T09:03:47;7.50;;;4.33;;
16115;SDS011;8162;47.104;15.432;2022-12-29T09:06:13;9.47;;;4.57;;
16115;SDS011;8162;47.104;15.432;2022-12-29T09:08:41;5.60;;;3.60;;
16115;SDS011;8162;47.104;15.432;2022-12-29T09:11:12;8.27;;;5.20;;
16115;SDS011;8162;47.104;15.432;2022-12-29T09:13:42;5.43;;;4.40;;
16115;SDS011;8162;47.104;15.432;2022-12-29T09:16:08;8.67;;;4.73;;
16115;SDS011;8162;47.104;15.432;2022-12-29T09:18:35;8.33;;;4.60;;
16115;SDS011;8162;47.104;15.432;2022-12-29T09:21:03;7.00;;;4.77;;
16115;SDS011;8162;47.104;15.432;2022-12-29T09:23:30;6.60;;;4.37;;
16115;SDS011;8162;47.104;15.432;2022-12-29T09:25:56;11.40;;;5.37;;
16115;SDS011;8162;47.104;15.432;2022-12-29T09:28:22;5.63;;;4.33;;
16115;SDS011;8162;47.104;15.432;2022-12-29T09:30:48;10.43;;;4.67;;
16115;SDS011;8162;47.104;15.432;2022-12-29T09:33:15;9.60;;;5.00;;
16115;SDS011;8162;47.104;15.432;2022-12-29T09:35:45;6.40;;;4.63;;
16115;SDS011;8162;47.104;15.432;2022-12-29T09:38:16;5.90;;;4.13;;
16115;SDS011;8162;47.104;15.432;2022-12-29T09:40:43;5.23;;;4.40;;
16115;SDS011;8162;47.104;15.432;2022-12-29T09:45:43;6.30;;;4.50;;
16115;SDS011;8162;47.104;15.432;2022-12-29T09:48:20;7.87;;;4.43;;
16115;SDS011;8162;47.104;15.432;2022-12-29T09:50:51;8.13;;;4.87;;
16115;SDS011;8162;47.104;15.432;2022-12-29T09:53:22;6.23;;;4.53;;
16115;SDS011;8162;47.104;15.432;2022-12-29T09:55:55;8.40;;;4.80;;
16115;SDS011;8162;47.104;15.432;2022-12-29T10:03:47;7.03;;;4.17;;
16115;SDS011;8162;47.104;15.432;2022-12-29T10:19:35;5.23;;;3.60;;
16115;SDS011;8162;47.104;15.432;2022-12-29T10:25:20;6.77;;;4.00;;
16115;SDS011;8162;47.104;15.432;2022-12-29T10:27:48;4.50;;;3.27;;
16115;SDS011;8162;47.104;15.432;2022-12-29T10:30:15;5.83;;;4.13;;
16115;SDS011;8162;47.104;15.432;2022-12-29T10:32:47;6.07;;;3.93;;
16115;SDS011;8162;47.104;15.432;2022-12-29T10:35:19;7.10;;;3.70;;
16115;SDS011;8162;47.104;15.432;2022-12-29T10:38:04;5.40;;;4.00;;
16115;SDS011;8162;47.104;15.432;2022-12-29T10:40:50;9.13;;;4.20;;
16115;SDS011;8162;47.104;15.432;2022-12-29T10:45:54;5.97;;;3.67;;
16115;SDS011;8162;47.104;15.432;2022-12-29T10:48:31;5.40;;;3.60;;
16115;SDS011;8162;47.104;15.432;2022-12-29T10:50:58;6.07;;;3.73;;
16115;SDS011;8162;47.104;15.432;2022-12-29T10:53:33;5.77;;;3.80;;
16115;SDS011;8162;47.104;15.432;2022-12-29T10:56:14;5.93;;;3.47;;
16115;SDS011;8162;47.104;15.432;2022-12-29T10:58:54;5.33;;;3.27;;
16115;SDS011;8162;47.104;15.432;2022-12-29T11:01:22;4.60;;;3.70;;
16115;SDS011;8162;47.104;15.432;2022-12-29T11:06:28;7.83;;;3.97;;
16115;SDS011;8162;47.104;15.432;2022-12-29T11:08:58;7.73;;;3.73;;
16115;SDS011;8162;47.104;15.432;2022-12-29T11:11:39;5.80;;;3.93;;
16115;SDS011;8162;47.104;15.432;2022-12-29T11:16:44;5.50;;;3.50;;
16115;SDS011;8162;47.104;15.432;2022-12-29T11:19:24;5.77;;;3.70;;
16115;SDS011;8162;47.104;15.432;2022-12-29T11:21:52;7.13;;;3.83;;
16115;SDS011;8162;47.104;15.432;2022-12-29T11:24:25;5.97;;;3.60;;
16115;SDS011;8162;47.104;15.432;2022-12-29T11:26:53;5.53;;;3.23;;
16115;SDS011;8162;47.104;15.432;2022-12-29T11:29:28;5.47;;;3.50;;
16115;SDS011;8162;47.104;15.432;2022-12-29T11:32:04;4.00;;;3.10;;
16115;SDS011;8162;47.104;15.432;2022-12-29T11:34:43;4.23;;;2.70;;
16115;SDS011;8162;47.104;15.432;2022-12-29T11:37:16;5.27;;;3.47;;
16115;SDS011;8162;47.104;15.432;2022-12-29T11:40:03;5.00;;;3.07;;
16115;SDS011;8162;47.104;15.432;2022-12-29T11:45:22;4.57;;;3.03;;
16115;SDS011;8162;47.104;15.432;2022-12-29T11:47:52;4.47;;;3.03;;
16115;SDS011;8162;47.104;15.432;2022-12-29T11:50:20;6.03;;;3.40;;
16115;SDS011;8162;47.104;15.432;2022-12-29T11:52:49;4.67;;;3.23;;
16115;SDS011;8162;47.104;15.432;2022-12-29T11:55:23;4.67;;;3.13;;
16115;SDS011;8162;47.104;15.432;2022-12-29T11:57:52;3.90;;;3.27;;
16115;SDS011;8162;47.104;15.432;2022-12-29T12:00:21;5.03;;;3.37;;
16115;SDS011;8162;47.104;15.432;2022-12-29T12:05:56;4.40;;;2.77;;
16115;SDS011;8162;47.104;15.432;2022-12-29T12:08:34;4.20;;;3.13;;
16115;SDS011;8162;47.104;15.432;2022-12-29T12:17:10;5.27;;;3.60;;
16115;SDS011;8162;47.104;15.432;2022-12-29T12:19:44;4.33;;;3.07;;
16115;SDS011;8162;47.104;15.432;2022-12-29T12:22:16;5.03;;;3.83;;
16115;SDS011;8162;47.104;15.432;2022-12-29T12:24:46;3.73;;;2.50;;
16115;SDS011;8162;47.104;15.432;2022-12-29T12:27:24;3.93;;;2.53;;
16115;SDS011;8162;47.104;15.432;2022-12-29T12:29:59;4.20;;;2.33;;
16115;SDS011;8162;47.104;15.432;2022-12-29T12:32:39;4.87;;;2.80;;
16115;SDS011;8162;47.104;15.432;2022-12-29T12:41:11;2.57;;;2.30;;
16115;SDS011;8162;47.104;15.432;2022-12-29T12:43:51;4.90;;;2.60;;
16115;SDS011;8162;47.104;15.432;2022-12-29T12:46:44;2.63;;;2.10;;
16115;SDS011;8162;47.104;15.432;2022-12-29T12:49:35;6.47;;;2.47;;
16115;SDS011;8162;47.104;15.432;2022-12-29T12:52:29;2.93;;;2.67;;
16115;SDS011;8162;47.104;15.432;2022-12-29T12:58:36;4.93;;;2.20;;
16115;SDS011;8162;47.104;15.432;2022-12-29T13:01:11;3.53;;;2.77;;
16115;SDS011;8162;47.104;15.432;2022-12-29T13:04:09;5.43;;;3.40;;
16115;SDS011;8162;47.104;15.432;2022-12-29T13:09:27;5.30;;;3.30;;
16115;SDS011;8162;47.104;15.432;2022-12-29T13:12:16;7.13;;;4.70;;
16115;SDS011;8162;47.104;15.432;2022-12-29T13:18:02;6.97;;;4.00;;
16115;SDS011;8162;47.104;15.432;2022-12-29T13:24:26;7.30;;;5.00;;
16115;SDS011;8162;47.104;15.432;2022-12-29T13:27:15;10.00;;;5.83;;
16115;SDS011;8162;47.104;15.432;2022-12-29T13:29:58;9.33;;;5.70;;
16115;SDS011;8162;47.104;15.432;2022-12-29T13:35:18;13.07;;;7.37;;
16115;SDS011;8162;47.104;15.432;2022-12-29T13:38:18;6.90;;;5.37;;
16115;SDS011;8162;47.104;15.432;2022-12-29T13:40:45;6.93;;;4.53;;
16115;SDS011;8162;47.104;15.432;2022-12-29T13:43:15;8.97;;;4.93;;
16115;SDS011;8162;47.104;15.432;2022-12-29T13:45:42;7.23;;;4.87;;
16115;SDS011;8162;47.104;15.432;2022-12-29T13:48:12;7.00;;;4.47;;
16115;SDS011;8162;47.104;15.432;2022-12-29T13:50:46;6.07;;;4.47;;
16115;SDS011;8162;47.104;15.432;2022-12-29T13:56:10;5.77;;;3.93;;
16115;SDS011;8162;47.104;15.432;2022-12-29T14:04:20;7.33;;;5.03;;
16115;SDS011;8162;47.104;15.432;2022-12-29T14:06:58;5.30;;;4.00;;
16115;SDS011;8162;47.104;15.432;2022-12-29T14:09:42;5.77;;;4.70;;
16115;SDS011;8162;47.104;15.432;2022-12-29T14:17:34;7.17;;;4.47;;
16115;SDS011;8162;47.104;15.432;2022-12-29T14:20:02;5.27;;;3.70;;
16115;SDS011;8162;47.104;15.432;2022-12-29T14:22:29;4.97;;;3.67;;
16115;SDS011;8162;47.104;15.432;2022-12-29T14:24:55;7.63;;;4.63;;
16115;SDS011;8162;47.104;15.432;2022-12-29T14:29:48;8.23;;;5.50;;
16115;SDS011;8162;47.104;15.432;2022-12-29T14:34:50;8.57;;;5.30;;
16115;SDS011;8162;47.104;15.432;2022-12-29T14:37:27;7.57;;;4.80;;
16115;SDS011;8162;47.104;15.432;2022-12-29T14:42:48;4.27;;;3.03;;
16115;SDS011;8162;47.104;15.432;2022-12-29T14:47:43;7.97;;;3.70;;
16115;SDS011;8162;47.104;15.432;2022-12-29T14:52:52;4.73;;;3.13;;
16115;SDS011;8162;47.104;15.432;2022-12-29T15:00:53;4.83;;;3.20;;
16115;SDS011;8162;47.104;15.432;2022-12-29T15:03:24;3.83;;;3.00;;
16115;SDS011;8162;47.104;15.432;2022-12-29T15:05:58;5.00;;;3.00;;
16115;SDS011;8162;47.104;15.432;2022-12-29T15:08:25;5.70;;;3.37;;
16115;SDS011;8162;47.104;15.432;2022-12-29T15:10:55;4.87;;;3.27;;
16115;SDS011;8162;47.104;15.432;2022-12-29T15:13:35;6.77;;;3.93;;
16115;SDS011;8162;47.104;15.432;2022-12-29T15:16:20;6.83;;;4.63;;
16115;SDS011;8162;47.104;15.432;2022-12-29T15:18:51;7.30;;;4.70;;
16115;SDS011;8162;47.104;15.432;2022-12-29T15:21:17;7.93;;;4.57;;
16115;SDS011;8162;47.104;15.432;2022-12-29T15:23:51;7.43;;;3.73;;
16115;SDS011;8162;47.104;15.432;2022-12-29T15:26:18;6.93;;;4.03;;
16115;SDS011;8162;47.104;15.432;2022-12-29T15:28:48;7.20;;;4.60;;
16115;SDS011;8162;47.104;15.432;2022-12-29T15:31:18;6.47;;;4.43;;
16115;SDS011;8162;47.104;15.432;2022-12-29T15:33:49;7.33;;;4.13;;
16115;SDS011;8162;47.104;15.432;2022-12-29T15:36:22;8.27;;;4.20;;
16115;SDS011;8162;47.104;15.432;2022-12-29T15:38:49;6.70;;;3.77;;
16115;SDS011;8162;47.104;15.432;2022-12-29T15:44:20;7.10;;;3.83;;
16115;SDS011;8162;47.104;15.432;2022-12-29T15:46:51;9.53;;;4.73;;
16115;SDS011;8162;47.104;15.432;2022-12-29T15:49:17;5.03;;;3.60;;
16115;SDS011;8162;47.104;15.432;2022-12-29T15:51:43;6.47;;;3.57;;
16115;SDS011;8162;47.104;15.432;2022-12-29T15:54:16;4.30;;;3.50;;
16115;SDS011;8162;47.104;15.432;2022-12-29T15:56:44;7.17;;;3.80;;
16115;SDS011;8162;47.104;15.432;2022-12-29T15:59:24;5.67;;;3.63;;
16115;SDS011;8162;47.104;15.432;2022-12-29T16:01:53;4.90;;;3.37;;
16115;SDS011;8162;47.104;15.432;2022-12-29T16:04:20;6.07;;;3.50;;
16115;SDS011;8162;47.104;15.432;2022-12-29T16:06:59;25.47;;;8.67;;
16115;SDS011;8162;47.104;15.432;2022-12-29T16:09:34;12.47;;;7.23;;
16115;SDS011;8162;47.104;15.432;2022-12-29T16:12:07;7.50;;;4.93;;
16115;SDS011;8162;47.104;15.432;2022-12-29T16:14:50;6.50;;;4.60;;
16115;SDS011;8162;47.104;15.432;2022-12-29T16:17:28;5.87;;;4.03;;
16115;SDS011;8162;47.104;15.432;2022-12-29T16:20:04;5.70;;;3.63;;
16115;SDS011;8162;47.104;15.432;2022-12-29T16:22:41;4.87;;;3.13;;
16115;SDS011;8162;47.104;15.432;2022-12-29T16:25:17;5.87;;;3.47;;
16115;SDS011;8162;47.104;15.432;2022-12-29T16:27:48;4.50;;;3.27;;
16115;SDS011;8162;47.104;15.432;2022-12-29T16:30:20;5.20;;;3.13;;
16115;SDS011;8162;47.104;15.432;2022-12-29T16:32:48;8.20;;;4.43;;
16115;SDS011;8162;47.104;15.432;2022-12-29T16:35:25;6.07;;;4.60;;
16115;SDS011;8162;47.104;15.432;2022-12-29T16:43:29;7.57;;;4.30;;
16115;SDS011;8162;47.104;15.432;2022-12-29T16:48:27;6.20;;;4.00;;
16115;SDS011;8162;47.104;15.432;2022-12-29T16:51:17;7.70;;;4.33;;
16115;SDS011;8162;47.104;15.432;2022-12-29T16:53:49;6.13;;;3.83;;
16115;SDS011;8162;47.104;15.432;2022-12-29T16:56:18;6.37;;;4.50;;
16115;SDS011;8162;47.104;15.432;2022-12-29T16:58:47;8.57;;;4.30;;
16115;SDS011;8162;47.104;15.432;2022-12-29T17:01:15;5.10;;;3.80;;
16115;SDS011;8162;47.104;15.432;2022-12-29T17:03:46;7.23;;;4.70;;
16115;SDS011;8162;47.104;15.432;2022-12-29T17:06:16;8.30;;;4.17;;
16115;SDS011;8162;47.104;15.432;2022-12-29T17:08:43;7.90;;;4.80;;
16115;SDS011;8162;47.104;15.432;2022-12-29T17:11:24;5.97;;;4.10;;
16115;SDS011;8162;47.104;15.432;2022-12-29T17:14:17;5.80;;;3.73;;
16115;SDS011;8162;47.104;15.432;2022-12-29T17:17:05;5.43;;;3.77;;
16115;SDS011;8162;47.104;15.432;2022-12-29T17:19:36;5.80;;;3.77;;
16115;SDS011;8162;47.104;15.432;2022-12-29T17:22:09;6.27;;;4.30;;
16115;SDS011;8162;47.104;15.432;2022-12-29T17:24:38;6.33;;;4.07;;
16115;SDS011;8162;47.104;15.432;2022-12-29T17:27:04;6.73;;;3.80;;